createdAt,value
2022-08-04T00:00:02.697Z,38
2022-08-04T00:01:08.887Z,38
2022-08-04T00:02:15.075Z,38
2022-08-04T00:03:21.220Z,38
2022-08-04T00:04:27.365Z,38
2022-08-04T00:05:33.599Z,38
2022-08-04T00:06:39.751Z,38
2022-08-04T00:07:45.896Z,38
2022-08-04T00:08:53.162Z,38
2022-08-04T00:10:02.018Z,38
2022-08-04T00:11:08.178Z,38
2022-08-04T00:12:21.396Z,38
2022-08-04T00:13:35.601Z,38
2022-08-04T00:14:41.751Z,38
2022-08-04T00:15:48.154Z,38
2022-08-04T00:16:54.302Z,38
2022-08-04T00:18:00.456Z,38
2022-08-04T00:19:06.607Z,38
2022-08-04T00:20:12.832Z,38
2022-08-04T00:21:18.985Z,38
2022-08-04T00:22:25.134Z,38
2022-08-04T00:24:10.310Z,38
2022-08-04T00:25:18.793Z,38
2022-08-04T00:26:26.281Z,38
2022-08-04T00:27:32.523Z,38
2022-08-04T00:28:42.588Z,38
2022-08-04T00:29:48.750Z,38
2022-08-04T00:30:59.483Z,38
2022-08-04T00:32:05.910Z,38
2022-08-04T00:33:12.061Z,38
2022-08-04T00:34:18.211Z,38
2022-08-04T00:35:24.453Z,38
2022-08-04T00:36:30.602Z,38
2022-08-04T00:37:36.751Z,38
2022-08-04T00:38:42.902Z,38
2022-08-04T00:39:49.621Z,38
2022-08-04T00:40:55.849Z,38
2022-08-04T00:42:02.003Z,38
2022-08-04T00:43:08.155Z,38
2022-08-04T00:44:14.302Z,38
2022-08-04T00:45:30.680Z,38
2022-08-04T00:47:16.917Z,38
2022-08-04T00:48:23.069Z,38
2022-08-04T00:49:29.214Z,38
2022-08-04T00:50:35.450Z,38
2022-08-04T00:51:41.596Z,38
2022-08-04T00:52:47.738Z,38
2022-08-04T00:53:53.931Z,38
2022-08-04T00:55:00.086Z,38
2022-08-04T00:56:06.250Z,38
2022-08-04T00:57:19.017Z,38
2022-08-04T00:58:39.908Z,38
2022-08-04T00:59:46.085Z,38
2022-08-04T01:00:52.538Z,38
2022-08-04T01:02:00.148Z,38
2022-08-04T01:03:06.296Z,38
2022-08-04T01:04:14.083Z,38
2022-08-04T01:05:20.339Z,38
2022-08-04T01:06:26.487Z,38
2022-08-04T01:07:32.741Z,38
2022-08-04T01:08:38.891Z,38
2022-08-04T01:09:45.037Z,38
2022-08-04T01:10:51.263Z,38
2022-08-04T01:11:58.025Z,38
2022-08-04T01:13:05.028Z,38
2022-08-04T01:14:21.179Z,38
2022-08-04T01:15:32.049Z,38
2022-08-04T01:17:02.591Z,38
2022-08-04T01:18:08.741Z,38
2022-08-04T01:19:14.891Z,38
2022-08-04T01:20:21.115Z,38
2022-08-04T01:21:27.262Z,38
2022-08-04T01:22:33.410Z,38
2022-08-04T01:23:39.566Z,38
2022-08-04T01:24:45.717Z,38
2022-08-04T01:25:56.231Z,38
2022-08-04T01:27:03.926Z,38
2022-08-04T01:28:10.236Z,38
2022-08-04T01:29:16.388Z,38
2022-08-04T01:30:22.781Z,38
2022-08-04T01:31:28.936Z,38
2022-08-04T01:32:35.083Z,38
2022-08-04T01:34:03.961Z,38
2022-08-04T01:35:10.899Z,38
2022-08-04T01:36:27.761Z,38
2022-08-04T01:37:34.084Z,38
2022-08-04T01:38:40.228Z,38
2022-08-04T01:39:46.380Z,38
2022-08-04T01:40:52.710Z,38
2022-08-04T01:41:58.872Z,38
2022-08-04T01:43:05.023Z,38
2022-08-04T01:44:11.169Z,38
2022-08-04T01:45:17.561Z,38
2022-08-04T01:46:23.718Z,38
2022-08-04T01:47:29.867Z,38
2022-08-04T01:48:36.012Z,38
2022-08-04T01:49:42.166Z,38
2022-08-04T01:50:52.923Z,38
2022-08-04T01:51:59.357Z,38
2022-08-04T01:53:06.616Z,38
2022-08-04T01:54:12.765Z,38
2022-08-04T01:55:19.017Z,38
2022-08-04T01:56:25.161Z,38
2022-08-04T01:57:46.162Z,38
2022-08-04T01:58:52.366Z,38
2022-08-04T01:59:58.520Z,38
2022-08-04T02:01:05.106Z,38
2022-08-04T02:02:15.024Z,38
2022-08-04T02:03:21.876Z,38
2022-08-04T02:04:28.029Z,38
2022-08-04T02:06:03.044Z,38
2022-08-04T02:07:10.211Z,38
2022-08-04T02:08:19.923Z,38
2022-08-04T02:09:26.069Z,38
2022-08-04T02:10:32.303Z,38
2022-08-04T02:11:38.463Z,38
2022-08-04T02:12:44.617Z,38
2022-08-04T02:13:50.763Z,38
2022-08-04T02:14:56.920Z,38
2022-08-04T02:16:03.067Z,38
2022-08-04T02:17:09.219Z,38
2022-08-04T02:18:15.360Z,38
2022-08-04T02:19:21.510Z,38
2022-08-04T02:20:27.743Z,38
2022-08-04T02:21:42.423Z,38
2022-08-04T02:22:48.911Z,38
2022-08-04T02:23:55.912Z,38
2022-08-04T02:25:02.186Z,38
2022-08-04T02:26:08.330Z,38
2022-08-04T02:27:26.146Z,38
2022-08-04T02:28:32.292Z,38
2022-08-04T02:29:38.441Z,38
2022-08-04T02:30:44.847Z,38
2022-08-04T02:31:50.987Z,38
2022-08-04T02:32:57.131Z,38
2022-08-04T02:34:03.274Z,38
2022-08-04T02:35:09.504Z,38
2022-08-04T02:36:15.642Z,38
2022-08-04T02:37:21.935Z,38
2022-08-04T02:38:28.264Z,38
2022-08-04T02:39:48.041Z,38
2022-08-04T02:40:56.580Z,38
2022-08-04T02:42:06.620Z,38
2022-08-04T02:43:15.704Z,38
2022-08-04T02:44:22.350Z,38
2022-08-04T02:45:28.743Z,38
2022-08-04T02:46:34.926Z,38
2022-08-04T02:48:29.035Z,38
2022-08-04T02:49:37.529Z,38
2022-08-04T02:50:47.469Z,38
2022-08-04T02:51:58.160Z,38
2022-08-04T02:53:04.301Z,38
2022-08-04T02:54:16.141Z,38
2022-08-04T02:55:37.980Z,38
2022-08-04T02:56:44.126Z,38
2022-08-04T02:57:50.291Z,38
2022-08-04T02:58:56.428Z,38
2022-08-04T03:00:02.849Z,38
2022-08-04T03:01:09.039Z,38
2022-08-04T03:01:21.625Z,38
2022-08-04T03:01:57.991Z,38
2022-08-04T03:02:25.208Z,38
2022-08-04T03:03:12.873Z,38
2022-08-04T03:03:34.371Z,38
2022-08-04T03:03:59.957Z,38
2022-08-04T03:04:31.961Z,38
2022-08-04T03:05:05.875Z,38
2022-08-04T03:05:57.493Z,38
2022-08-04T03:06:10.472Z,38
2022-08-04T03:06:34.418Z,38
2022-08-04T03:06:55.989Z,38
2022-08-04T03:07:28.730Z,38
2022-08-04T03:08:00.046Z,38
2022-08-04T03:08:32.788Z,38
2022-08-04T03:09:04.889Z,38
2022-08-04T03:09:35.078Z,38
2022-08-04T03:09:53.457Z,38
2022-08-04T03:10:24.086Z,38
2022-08-04T03:10:41.123Z,38
2022-08-04T03:11:12.801Z,38
2022-08-04T03:11:33.377Z,38
2022-08-04T03:11:59.958Z,38
2022-08-04T03:12:32.769Z,38
2022-08-04T03:13:03.951Z,38
2022-08-04T03:13:34.180Z,38
2022-08-04T03:13:52.166Z,38
2022-08-04T03:14:23.980Z,38
2022-08-04T03:14:41.864Z,38
2022-08-04T03:15:12.223Z,38
2022-08-04T03:15:33.379Z,38
2022-08-04T03:16:01.761Z,38
2022-08-04T03:16:36.690Z,38
2022-08-04T03:17:04.778Z,38
2022-08-04T03:17:33.369Z,38
2022-08-04T03:17:52.579Z,38
2022-08-04T03:18:23.948Z,38
2022-08-04T03:18:41.876Z,38
2022-08-04T03:19:12.779Z,38
2022-08-04T03:19:33.364Z,38
2022-08-04T03:20:00.017Z,38
2022-08-04T03:20:32.045Z,38
2022-08-04T03:21:03.947Z,38
2022-08-04T03:21:34.663Z,38
2022-08-04T03:21:51.983Z,38
2022-08-04T03:22:25.683Z,38
2022-08-04T03:23:12.460Z,38
2022-08-04T03:23:28.781Z,38
2022-08-04T03:23:59.975Z,38
2022-08-04T03:24:31.983Z,38
2022-08-04T03:25:04.961Z,38
2022-08-04T03:25:34.272Z,38
2022-08-04T03:25:57.277Z,38
2022-08-04T03:26:23.976Z,38
2022-08-04T03:26:41.118Z,38
2022-08-04T03:27:12.031Z,38
2022-08-04T03:27:33.971Z,38
2022-08-04T03:28:03.490Z,38
2022-08-04T03:28:31.970Z,38
2022-08-04T03:29:03.965Z,38
2022-08-04T03:29:36.461Z,38
2022-08-04T03:29:54.218Z,38
2022-08-04T03:30:25.328Z,38
2022-08-04T03:30:55.936Z,38
2022-08-04T03:31:27.980Z,38
2022-08-04T03:32:00.000Z,38
2022-08-04T03:32:32.014Z,38
2022-08-04T03:33:03.981Z,38
2022-08-04T03:33:33.377Z,38
2022-08-04T03:33:53.533Z,38
2022-08-04T03:34:23.937Z,38
2022-08-04T03:34:41.083Z,38
2022-08-04T03:35:13.580Z,38
2022-08-04T03:35:33.367Z,38
2022-08-04T03:36:00.132Z,38
2022-08-04T03:36:32.656Z,38
2022-08-04T03:37:03.994Z,38
2022-08-04T03:37:35.464Z,38
2022-08-04T03:37:52.764Z,38
2022-08-04T03:38:24.017Z,38
2022-08-04T03:38:41.120Z,38
2022-08-04T03:39:12.816Z,38
2022-08-04T03:39:33.447Z,38
2022-08-04T03:40:00.994Z,38
2022-08-04T03:40:32.784Z,38
2022-08-04T03:41:04.212Z,38
2022-08-04T03:41:57.448Z,38
2022-08-04T03:42:14.255Z,38
2022-08-04T03:42:33.415Z,38
2022-08-04T03:42:57.532Z,38
2022-08-04T03:43:57.653Z,38
2022-08-04T03:44:17.693Z,38
2022-08-04T03:44:47.988Z,38
2022-08-04T03:45:23.916Z,38
2022-08-04T03:45:52.762Z,38
2022-08-04T03:46:24.053Z,38
2022-08-04T03:46:41.237Z,38
2022-08-04T03:47:12.744Z,38
2022-08-04T03:47:36.167Z,38
2022-08-04T03:47:59.994Z,38
2022-08-04T03:48:32.532Z,38
2022-08-04T03:49:03.999Z,38
2022-08-04T03:49:33.995Z,38
2022-08-04T03:49:52.219Z,38
2022-08-04T03:50:24.089Z,38
2022-08-04T03:50:41.780Z,38
2022-08-04T03:51:35.232Z,38
2022-08-04T03:51:44.485Z,38
2022-08-04T03:52:15.951Z,38
2022-08-04T03:52:33.405Z,38
2022-08-04T03:53:04.802Z,38
2022-08-04T03:53:34.244Z,38
2022-08-04T03:53:54.283Z,38
2022-08-04T03:54:23.952Z,38
2022-08-04T03:54:41.451Z,38
2022-08-04T03:55:12.072Z,38
2022-08-04T03:55:34.317Z,38
2022-08-04T03:56:00.745Z,38
2022-08-04T03:56:31.950Z,38
2022-08-04T03:57:04.884Z,38
2022-08-04T03:57:33.409Z,38
2022-08-04T03:57:52.001Z,38
2022-08-04T03:58:30.366Z,38
2022-08-04T03:58:41.103Z,38
2022-08-04T03:59:12.489Z,38
2022-08-04T03:59:33.410Z,38
2022-08-04T04:00:01.139Z,38
2022-08-04T04:00:32.894Z,38
2022-08-04T04:01:03.978Z,38
2022-08-04T04:02:01.167Z,38
2022-08-04T04:02:08.080Z,38
2022-08-04T04:02:33.940Z,38
2022-08-04T04:02:56.032Z,38
2022-08-04T04:03:29.384Z,38
2022-08-04T04:03:59.982Z,38
2022-08-04T04:04:32.691Z,38
2022-08-04T04:05:04.596Z,38
2022-08-04T04:05:58.829Z,38
2022-08-04T04:06:11.557Z,38
2022-08-04T04:06:35.375Z,38
2022-08-04T04:06:56.903Z,38
2022-08-04T04:07:35.861Z,38
2022-08-04T04:08:01.935Z,38
2022-08-04T04:08:31.944Z,38
2022-08-04T04:09:04.542Z,38
2022-08-04T04:09:57.007Z,38
2022-08-04T04:10:08.672Z,38
2022-08-04T04:10:36.341Z,38
2022-08-04T04:10:56.045Z,38
2022-08-04T04:11:27.945Z,38
2022-08-04T04:12:00.024Z,38
2022-08-04T04:12:31.972Z,38
2022-08-04T04:13:04.051Z,38
2022-08-04T04:13:33.403Z,38
2022-08-04T04:13:51.938Z,38
2022-08-04T04:14:24.452Z,38
2022-08-04T04:14:55.979Z,38
2022-08-04T04:15:29.574Z,38
2022-08-04T04:15:59.942Z,38
2022-08-04T04:16:32.486Z,38
2022-08-04T04:17:03.970Z,38
2022-08-04T04:17:34.890Z,38
2022-08-04T04:18:07.927Z,38
2022-08-04T04:18:33.416Z,38
2022-08-04T04:18:55.956Z,38
2022-08-04T04:19:27.958Z,38
2022-08-04T04:20:00.451Z,38
2022-08-04T04:20:31.870Z,38
2022-08-04T04:21:04.617Z,38
2022-08-04T04:21:34.144Z,38
2022-08-04T04:21:52.063Z,38
2022-08-04T04:22:24.729Z,38
2022-08-04T04:22:41.235Z,38
2022-08-04T04:23:12.675Z,38
2022-08-04T04:23:34.437Z,38
2022-08-04T04:23:59.959Z,38
2022-08-04T04:24:34.531Z,38
2022-08-04T04:25:04.134Z,38
2022-08-04T04:25:35.559Z,38
2022-08-04T04:25:52.085Z,38
2022-08-04T04:26:24.529Z,38
2022-08-04T04:26:55.963Z,38
2022-08-04T04:27:28.575Z,38
2022-08-04T04:28:43.727Z,38
2022-08-04T04:29:03.953Z,38
2022-08-04T04:29:34.717Z,38
2022-08-04T04:29:51.950Z,38
2022-08-04T04:30:24.216Z,38
2022-08-04T04:30:41.585Z,38
2022-08-04T04:31:11.957Z,38
2022-08-04T04:31:33.410Z,38
2022-08-04T04:31:59.923Z,38
2022-08-04T04:32:32.762Z,38
2022-08-04T04:33:04.427Z,38
2022-08-04T04:33:33.414Z,38
2022-08-04T04:33:51.948Z,38
2022-08-04T04:34:24.020Z,38
2022-08-04T04:34:45.841Z,38
2022-08-04T04:35:13.553Z,38
2022-08-04T04:35:34.237Z,38
2022-08-04T04:36:16.814Z,38
2022-08-04T04:36:48.854Z,38
2022-08-04T04:37:20.696Z,38
2022-08-04T04:37:51.914Z,38
2022-08-04T04:38:24.521Z,38
2022-08-04T04:38:42.114Z,38
2022-08-04T04:39:11.979Z,38
2022-08-04T04:39:33.524Z,38
2022-08-04T04:39:59.911Z,38
2022-08-04T04:40:32.931Z,38
2022-08-04T04:41:03.982Z,38
2022-08-04T04:41:34.196Z,38
2022-08-04T04:41:51.939Z,38
2022-08-04T04:42:23.942Z,38
2022-08-04T04:42:41.655Z,38
2022-08-04T04:43:12.940Z,38
2022-08-04T04:43:51.445Z,38
2022-08-04T04:43:59.956Z,38
2022-08-04T04:44:32.061Z,38
2022-08-04T04:45:04.917Z,38
2022-08-04T04:45:33.401Z,38
2022-08-04T04:45:52.031Z,38
2022-08-04T04:46:23.905Z,38
2022-08-04T04:46:41.031Z,38
2022-08-04T04:47:12.598Z,38
2022-08-04T04:48:07.319Z,38
2022-08-04T04:48:16.937Z,38
2022-08-04T04:48:48.033Z,38
2022-08-04T04:49:20.398Z,38
2022-08-04T04:49:51.908Z,38
2022-08-04T04:50:32.529Z,38
2022-08-04T04:50:55.946Z,38
2022-08-04T04:51:28.477Z,38
2022-08-04T04:51:59.902Z,38
2022-08-04T04:52:32.613Z,38
2022-08-04T04:53:03.975Z,38
2022-08-04T04:53:33.984Z,38
2022-08-04T04:53:51.978Z,38
2022-08-04T04:54:23.901Z,38
2022-08-04T04:54:43.329Z,38
2022-08-04T04:55:12.019Z,38
2022-08-04T04:55:33.428Z,38
2022-08-04T04:56:00.068Z,38
2022-08-04T04:56:31.942Z,38
2022-08-04T04:57:04.402Z,38
2022-08-04T04:57:53.101Z,38
2022-08-04T04:58:08.519Z,38
2022-08-04T04:58:33.387Z,38
2022-08-04T04:58:56.003Z,38
2022-08-04T04:59:27.969Z,38
2022-08-04T04:59:59.929Z,38
2022-08-04T05:00:32.473Z,38
2022-08-04T05:01:04.829Z,38
2022-08-04T05:01:33.391Z,38
2022-08-04T05:01:51.923Z,38
2022-08-04T05:02:24.919Z,38
2022-08-04T05:02:41.434Z,38
2022-08-04T05:03:11.990Z,38
2022-08-04T05:03:33.435Z,38
2022-08-04T05:03:59.909Z,38
2022-08-04T05:04:32.460Z,38
2022-08-04T05:05:03.977Z,38
2022-08-04T05:05:34.503Z,38
2022-08-04T05:05:52.820Z,38
2022-08-04T05:06:24.868Z,38
2022-08-04T05:06:41.822Z,38
2022-08-04T05:07:11.901Z,38
2022-08-04T05:07:33.401Z,38
2022-08-04T05:08:00.083Z,38
2022-08-04T05:08:51.163Z,38
2022-08-04T05:09:19.889Z,38
2022-08-04T05:09:53.795Z,38
2022-08-04T05:10:23.972Z,38
2022-08-04T05:10:40.932Z,38
2022-08-04T05:11:12.947Z,38
2022-08-04T05:11:34.898Z,38
2022-08-04T05:12:00.433Z,38
2022-08-04T05:14:32.794Z,38
2022-08-04T05:14:55.917Z,38
2022-08-04T05:15:28.734Z,38
2022-08-04T05:15:59.922Z,38
2022-08-04T05:16:32.558Z,38
2022-08-04T05:17:03.967Z,38
2022-08-04T05:17:33.987Z,38
2022-08-04T05:17:53.091Z,38
2022-08-04T05:18:23.927Z,38
2022-08-04T05:18:41.602Z,38
2022-08-04T05:19:11.942Z,38
2022-08-04T05:19:33.434Z,38
2022-08-04T05:19:59.895Z,38
2022-08-04T05:20:32.133Z,38
2022-08-04T05:21:04.826Z,38
2022-08-04T05:21:33.406Z,38
2022-08-04T05:21:51.881Z,38
2022-08-04T05:22:23.960Z,38
2022-08-04T05:22:41.831Z,38
2022-08-04T05:23:12.430Z,38
2022-08-04T05:23:34.284Z,38
2022-08-04T05:23:59.966Z,38
2022-08-04T05:24:34.892Z,38
2022-08-04T05:25:04.000Z,38
2022-08-04T05:25:33.715Z,38
2022-08-04T05:25:58.817Z,38
2022-08-04T05:26:35.518Z,38
2022-08-04T05:26:55.877Z,38
2022-08-04T05:27:29.074Z,38
2022-08-04T05:28:00.939Z,38
2022-08-04T05:28:31.917Z,38
2022-08-04T05:29:03.881Z,38
2022-08-04T05:29:35.121Z,38
2022-08-04T05:30:09.044Z,38
2022-08-04T05:30:33.428Z,38
2022-08-04T05:30:55.982Z,38
2022-08-04T05:31:27.907Z,38
2022-08-04T05:31:59.918Z,38
2022-08-04T05:32:31.867Z,38
2022-08-04T05:33:03.910Z,38
2022-08-04T05:33:34.731Z,38
2022-08-04T05:33:51.868Z,38
2022-08-04T05:34:24.456Z,38
2022-08-04T05:34:56.874Z,38
2022-08-04T05:35:47.858Z,38
2022-08-04T05:36:40.973Z,38
2022-08-04T05:37:03.880Z,38
2022-08-04T05:37:34.183Z,38
2022-08-04T05:38:07.868Z,38
2022-08-04T05:38:33.405Z,38
2022-08-04T05:38:56.825Z,38
2022-08-04T05:39:32.359Z,38
2022-08-04T05:40:00.621Z,38
2022-08-04T05:40:31.912Z,38
2022-08-04T05:41:04.476Z,38
2022-08-04T05:41:45.620Z,38
2022-08-04T05:41:55.343Z,38
2022-08-04T05:42:23.913Z,38
2022-08-04T05:42:40.992Z,38
2022-08-04T05:43:12.371Z,38
2022-08-04T05:43:35.292Z,38
2022-08-04T05:44:00.669Z,38
2022-08-04T05:44:31.907Z,38
2022-08-04T05:45:05.298Z,38
2022-08-04T05:45:39.235Z,38
2022-08-04T05:45:52.078Z,38
2022-08-04T05:46:24.440Z,38
2022-08-04T05:47:00.951Z,38
2022-08-04T05:47:28.365Z,38
2022-08-04T05:47:59.924Z,38
2022-08-04T05:48:32.411Z,38
2022-08-04T05:49:03.940Z,38
2022-08-04T05:49:34.611Z,38
2022-08-04T05:50:01.185Z,38
2022-08-04T05:50:23.950Z,38
2022-08-04T05:50:43.625Z,38
2022-08-04T05:51:11.890Z,38
2022-08-04T05:51:33.440Z,38
2022-08-04T05:51:59.762Z,38
2022-08-04T05:52:31.944Z,26
2022-08-04T05:53:05.612Z,27
2022-08-04T05:53:33.595Z,27
2022-08-04T05:53:51.863Z,31
2022-08-04T05:54:23.940Z,31
2022-08-04T05:54:42.124Z,31
2022-08-04T05:55:12.693Z,31
2022-08-04T05:56:00.166Z,31
2022-08-04T05:56:32.625Z,32
2022-08-04T05:57:03.901Z,32
2022-08-04T05:57:34.187Z,31
2022-08-04T05:57:55.633Z,32
2022-08-04T05:58:24.496Z,32
2022-08-04T05:58:41.355Z,32
2022-08-04T05:59:11.888Z,32
2022-08-04T05:59:33.389Z,32
2022-08-04T05:59:59.988Z,32
2022-08-04T06:00:41.075Z,32
2022-08-04T06:01:03.859Z,32
2022-08-04T06:01:33.420Z,32
2022-08-04T06:02:07.968Z,32
2022-08-04T06:02:33.394Z,32
2022-08-04T06:02:56.524Z,32
2022-08-04T06:03:28.787Z,32
2022-08-04T06:04:00.439Z,32
2022-08-04T06:04:32.739Z,32
2022-08-04T06:05:05.680Z,32
2022-08-04T06:05:33.404Z,32
2022-08-04T06:05:51.929Z,32
2022-08-04T06:06:23.987Z,32
2022-08-04T06:06:40.999Z,32
2022-08-04T06:07:12.379Z,32
2022-08-04T06:07:33.437Z,32
2022-08-04T06:08:12.420Z,32
2022-08-04T06:08:31.962Z,32
2022-08-04T06:09:03.853Z,32
2022-08-04T06:09:33.601Z,32
2022-08-04T06:09:52.033Z,32
2022-08-04T06:10:29.862Z,32
2022-08-04T06:10:41.398Z,32
2022-08-04T06:11:11.847Z,32
2022-08-04T06:11:33.393Z,29
2022-08-04T06:12:16.742Z,23
2022-08-04T06:12:47.875Z,23
2022-08-04T06:13:48.148Z,23
2022-08-04T06:13:52.484Z,23
2022-08-04T06:14:23.847Z,23
2022-08-04T06:14:40.963Z,23
2022-08-04T06:15:12.102Z,23
2022-08-04T06:15:33.393Z,23
2022-08-04T06:16:01.490Z,23
2022-08-04T06:16:32.136Z,23
2022-08-04T06:17:04.893Z,23
2022-08-04T06:19:56.368Z,23
2022-08-04T06:20:19.931Z,27
2022-08-04T06:20:50.244Z,27
2022-08-04T06:21:20.383Z,27
2022-08-04T06:21:51.844Z,27
2022-08-04T06:22:25.003Z,27
2022-08-04T06:22:41.473Z,27
2022-08-04T06:23:12.784Z,27
2022-08-04T06:23:34.790Z,27
2022-08-04T06:24:04.243Z,27
2022-08-04T06:24:32.423Z,27
2022-08-04T06:25:03.978Z,27
2022-08-04T06:25:34.041Z,27
2022-08-04T06:25:52.041Z,28
2022-08-04T06:26:23.872Z,29
2022-08-04T06:26:41.532Z,28
2022-08-04T06:27:11.836Z,32
2022-08-04T06:27:33.394Z,32
2022-08-04T06:28:00.740Z,32
2022-08-04T06:28:31.871Z,32
2022-08-04T06:29:04.563Z,32
2022-08-04T06:29:34.337Z,32
2022-08-04T06:29:52.760Z,74
2022-08-04T06:30:25.127Z,76
2022-08-04T06:30:41.236Z,75
2022-08-04T06:32:26.838Z,77
2022-08-04T06:32:48.778Z,104
2022-08-04T06:33:20.460Z,97
2022-08-04T06:33:54.883Z,98
2022-08-04T06:34:24.755Z,108
2022-08-04T06:34:41.275Z,90
2022-08-04T06:35:11.931Z,98
2022-08-04T06:35:35.157Z,90
2022-08-04T06:36:00.028Z,92
2022-08-04T06:36:32.451Z,97
2022-08-04T06:37:03.852Z,95
2022-08-04T06:37:41.987Z,95
2022-08-04T06:37:52.260Z,95
2022-08-04T06:38:23.863Z,95
2022-08-04T06:38:41.470Z,95
2022-08-04T06:39:11.906Z,105
2022-08-04T06:39:33.518Z,72
2022-08-04T06:39:59.822Z,86
2022-08-04T06:40:33.258Z,71
2022-08-04T06:41:04.322Z,123
2022-08-04T06:41:33.467Z,125
2022-08-04T06:42:17.081Z,124
2022-08-04T06:42:23.847Z,124
2022-08-04T06:42:41.110Z,124
2022-08-04T06:43:12.325Z,123
2022-08-04T06:43:33.594Z,123
2022-08-04T06:43:59.944Z,123
2022-08-04T06:44:32.891Z,123
2022-08-04T06:45:04.275Z,123
2022-08-04T06:45:33.388Z,130
2022-08-04T06:45:52.808Z,127
2022-08-04T06:46:24.314Z,127
2022-08-04T06:46:55.885Z,127
2022-08-04T06:47:28.316Z,126
2022-08-04T06:47:59.815Z,116
2022-08-04T06:48:33.751Z,85
2022-08-04T06:49:04.896Z,78
2022-08-04T06:49:55.048Z,78
2022-08-04T06:51:40.978Z,73
2022-08-04T06:51:59.829Z,72
2022-08-04T06:52:31.890Z,78
2022-08-04T06:53:04.336Z,94
2022-08-04T06:53:33.392Z,100
2022-08-04T06:53:52.648Z,77
2022-08-04T06:54:24.408Z,84
2022-08-04T06:54:55.866Z,73
2022-08-04T06:55:27.919Z,58
2022-08-04T06:55:59.807Z,102
2022-08-04T06:56:31.921Z,123
2022-08-04T06:57:03.822Z,112
2022-08-04T06:57:33.430Z,81
2022-08-04T06:57:51.815Z,100
2022-08-04T06:58:24.333Z,70
2022-08-04T06:58:42.644Z,82
2022-08-04T06:59:11.806Z,101
2022-08-04T06:59:35.187Z,129
2022-08-04T06:59:59.849Z,78
2022-08-04T07:00:32.922Z,81
2022-08-04T07:01:03.840Z,156
2022-08-04T07:01:34.069Z,106
2022-08-04T07:01:52.089Z,73
2022-08-04T07:02:23.804Z,71
2022-08-04T07:02:42.330Z,123
2022-08-04T07:03:11.872Z,105
2022-08-04T07:03:33.394Z,157
2022-08-04T07:03:59.829Z,103
2022-08-04T07:04:32.631Z,175
2022-08-04T07:05:07.745Z,94
2022-08-04T07:05:33.501Z,82
2022-08-04T07:05:51.911Z,125
2022-08-04T07:06:24.693Z,133
2022-08-04T07:06:41.294Z,115
2022-08-04T07:07:12.518Z,149
2022-08-04T07:07:37.286Z,117
2022-08-04T07:08:00.824Z,88
2022-08-04T07:08:32.823Z,95
2022-08-04T07:09:03.867Z,78
2022-08-04T07:09:34.278Z,99
2022-08-04T07:09:51.815Z,139
2022-08-04T07:10:24.501Z,73
2022-08-04T07:10:55.799Z,133
2022-08-04T07:11:28.932Z,95
2022-08-04T07:11:59.789Z,90
2022-08-04T07:12:33.379Z,72
2022-08-04T07:13:03.918Z,95
2022-08-04T07:13:33.939Z,93
2022-08-04T07:13:51.983Z,114
2022-08-04T07:14:23.820Z,71
2022-08-04T07:14:41.519Z,77
2022-08-04T07:15:14.340Z,73
2022-08-04T07:15:33.392Z,70
2022-08-04T07:15:59.899Z,126
2022-08-04T07:16:32.777Z,100
2022-08-04T07:17:04.302Z,87
2022-08-04T07:17:34.591Z,89
2022-08-04T07:17:52.315Z,93
2022-08-04T07:18:23.796Z,81
2022-08-04T07:18:41.208Z,69
2022-08-04T07:19:14.820Z,100
2022-08-04T07:19:35.986Z,104
2022-08-04T07:19:59.836Z,127
2022-08-04T07:20:35.569Z,160
2022-08-04T07:21:03.847Z,97
2022-08-04T07:21:34.677Z,94
2022-08-04T07:22:16.160Z,133
2022-08-04T07:22:34.789Z,99
2022-08-04T07:22:55.706Z,101
2022-08-04T07:23:29.493Z,102
2022-08-04T07:23:59.814Z,127
2022-08-04T07:24:32.368Z,98
2022-08-04T07:25:04.045Z,110
2022-08-04T07:25:59.599Z,112
2022-08-04T07:26:23.783Z,99
2022-08-04T07:26:42.141Z,93
2022-08-04T07:27:12.864Z,103
2022-08-04T07:27:47.616Z,109
2022-08-04T07:27:59.786Z,70
2022-08-04T07:28:31.984Z,131
2022-08-04T07:29:04.522Z,273
2022-08-04T07:29:33.405Z,126
2022-08-04T07:29:51.823Z,94
2022-08-04T07:30:25.004Z,173
2022-08-04T07:30:40.930Z,116
2022-08-04T07:31:33.035Z,132
2022-08-04T07:31:43.813Z,143
2022-08-04T07:32:16.384Z,128
2022-08-04T07:32:33.509Z,137
2022-08-04T07:33:03.812Z,70
2022-08-04T07:33:33.928Z,63
2022-08-04T07:34:17.725Z,67
2022-08-04T07:34:24.384Z,71
2022-08-04T07:34:41.411Z,74
2022-08-04T07:35:40.980Z,85
2022-08-04T07:36:16.690Z,87
2022-08-04T07:36:41.992Z,91
2022-08-04T07:37:03.785Z,95
2022-08-04T07:37:40.028Z,103
2022-08-04T07:37:51.850Z,113
2022-08-04T07:38:27.829Z,90
2022-08-04T07:38:48.095Z,101
2022-08-04T07:39:11.858Z,68
2022-08-04T07:39:47.649Z,92
2022-08-04T07:40:00.518Z,160
2022-08-04T07:40:32.083Z,198
2022-08-04T07:41:35.495Z,63
2022-08-04T07:41:51.773Z,72
2022-08-04T07:42:23.806Z,73
2022-08-04T07:42:41.827Z,72
2022-08-04T07:43:12.304Z,130
2022-08-04T07:43:34.327Z,92
2022-08-04T07:44:00.667Z,60
2022-08-04T07:44:31.809Z,95
2022-08-04T07:45:04.045Z,107
2022-08-04T07:45:33.398Z,137
2022-08-04T07:45:51.892Z,118
2022-08-04T07:46:25.298Z,87
2022-08-04T07:46:55.908Z,159
2022-08-04T07:47:28.505Z,140
2022-08-04T07:48:05.209Z,108
2022-08-04T07:48:32.294Z,127
2022-08-04T07:49:03.799Z,146
2022-08-04T07:49:55.843Z,176
2022-08-04T07:50:07.873Z,66
2022-08-04T07:50:34.096Z,78
2022-08-04T07:50:55.862Z,82
2022-08-04T07:51:27.831Z,82
2022-08-04T07:52:00.275Z,147
2022-08-04T07:52:31.769Z,119
2022-08-04T07:53:55.045Z,100
2022-08-04T07:54:08.459Z,106
2022-08-04T07:54:33.401Z,106
2022-08-04T07:54:55.802Z,107
2022-08-04T07:55:28.061Z,75
2022-08-04T07:56:00.000Z,85
2022-08-04T07:56:31.835Z,94
2022-08-04T07:57:03.992Z,74
2022-08-04T07:57:40.610Z,63
2022-08-04T07:57:52.663Z,99
2022-08-04T07:58:27.414Z,134
2022-08-04T07:58:41.506Z,161
2022-08-04T07:59:11.924Z,144
2022-08-04T07:59:33.394Z,133
2022-08-04T08:00:01.047Z,161
2022-08-04T08:00:33.270Z,104
2022-08-04T08:01:04.671Z,198
2022-08-04T08:01:33.985Z,121
2022-08-04T08:01:51.846Z,69
2022-08-04T08:02:23.786Z,106
2022-08-04T08:02:41.413Z,130
2022-08-04T08:03:11.866Z,127
2022-08-04T08:03:34.281Z,70
2022-08-04T08:03:59.852Z,80
2022-08-04T08:04:31.825Z,100
2022-08-04T08:05:04.504Z,94
2022-08-04T08:05:33.445Z,109
2022-08-04T08:06:18.036Z,42
2022-08-04T08:06:42.997Z,98
2022-08-04T08:07:12.282Z,97
2022-08-04T08:07:36.174Z,97
2022-08-04T08:07:59.917Z,174
2022-08-04T08:08:31.749Z,138
2022-08-04T08:09:12.555Z,118
2022-08-04T08:09:33.403Z,159
2022-08-04T08:09:52.480Z,311
2022-08-04T08:10:24.385Z,110
2022-08-04T08:10:42.364Z,130
2022-08-04T08:11:11.748Z,166
2022-08-04T08:12:36.517Z,114
2022-08-04T08:13:03.816Z,176
2022-08-04T08:13:34.021Z,85
2022-08-04T08:13:51.810Z,151
2022-08-04T08:14:23.906Z,93
2022-08-04T08:14:41.525Z,104
2022-08-04T08:15:12.100Z,113
2022-08-04T08:15:33.429Z,129
2022-08-04T08:15:59.789Z,79
2022-08-04T08:16:31.859Z,65
2022-08-04T08:17:04.592Z,99
2022-08-04T08:17:59.036Z,114
2022-08-04T08:18:08.505Z,119
2022-08-04T08:18:34.418Z,159
2022-08-04T08:18:55.767Z,118
2022-08-04T08:19:27.811Z,143
2022-08-04T08:19:59.849Z,135
2022-08-04T08:20:31.835Z,130
2022-08-04T08:21:03.780Z,105
2022-08-04T08:21:33.524Z,64
2022-08-04T08:21:58.882Z,55
2022-08-04T08:22:24.510Z,82
2022-08-04T08:22:55.798Z,178
2022-08-04T08:23:28.313Z,154
2022-08-04T08:23:59.940Z,146
2022-08-04T08:24:32.277Z,177
2022-08-04T08:25:04.920Z,154
2022-08-04T08:25:35.561Z,75
2022-08-04T08:26:07.820Z,148
2022-08-04T08:26:34.248Z,73
2022-08-04T08:26:55.796Z,143
2022-08-04T08:27:27.776Z,109
2022-08-04T08:28:00.428Z,78
2022-08-04T08:28:31.840Z,198
2022-08-04T08:29:04.439Z,134
2022-08-04T08:29:33.470Z,131
2022-08-04T08:29:51.762Z,171
2022-08-04T08:30:24.129Z,126
2022-08-04T08:30:41.845Z,129
2022-08-04T08:31:12.338Z,163
2022-08-04T08:31:56.361Z,75
2022-08-04T08:32:07.416Z,81
2022-08-04T08:32:31.807Z,41
2022-08-04T08:33:05.442Z,87
2022-08-04T08:33:34.408Z,88
2022-08-04T08:33:52.556Z,86
2022-08-04T08:34:28.140Z,54
2022-08-04T08:34:41.304Z,54
2022-08-04T08:35:11.876Z,82
2022-08-04T08:35:33.442Z,84
2022-08-04T08:35:59.828Z,64